Date,TemperatureHighF,TemperatureAvgF,TemperatureLowF,DewpointHighF,DewpointAvgF,DewpointLowF,HumidityHigh,HumidityAvg,HumidityLow,PressureMaxIn,PressureMinIn,WindSpeedMaxMPH,WindSpeedAvgMPH,GustSpeedMaxMPH,PrecipitationSumIn
2013-1-1,78.6,73.6,69.1,64.0,60.7,57.0,78,65,56,30.14,30.00,14,3,0,0.00
2013-1-2,80.3,72.0,64.0,68.0,64.8,60.0,90,78,63,30.04,29.94,10,2,0,0.00
2013-1-3,81.1,74.4,68.4,69.0,67.1,65.0,90,78,62,30.08,29.98,11,2,0,0.00
2013-1-4,80.3,73.8,67.4,71.0,68.6,65.0,92,84,71,30.17,30.05,4,1,0,0.00
2013-1-5,79.0,72.8,68.3,71.0,68.1,66.0,92,85,74,30.19,30.10,9,2,0,0.00
2013-1-6,80.1,75.8,71.5,72.0,70.2,67.0,91,83,73,30.14,30.02,11,2,0,0.07
2013-1-7,77.7,72.4,68.9,70.0,68.1,65.0,93,86,68,30.12,30.02,7,2,0,0.16
2013-1-8,81.4,77.0,73.2,73.0,71.4,70.0,88,83,75,30.15,30.02,10,2,0,0.05
2013-1-9,80.9,77.5,75.6,73.0,71.1,69.0,85,80,74,30.23,30.11,10,3,0,0.00
2013-1-10,80.5,76.6,74.4,69.0,67.1,65.0,78,72,60,30.25,30.13,7,2,0,0.00
2013-1-11,80.3,76.6,74.6,70.0,68.0,66.0,82,75,67,30.20,30.11,11,3,0,0.00
2013-1-12,80.5,76.4,73.5,69.0,67.4,65.0,82,74,62,30.14,30.05,12,2,0,0.00
2013-1-13,80.3,75.7,73.3,68.0,65.5,62.0,79,71,62,30.08,30.02,9,2,0,0.00
2013-1-14,79.6,75.4,72.7,66.0,63.9,62.0,75,68,60,30.13,30.07,6,2,0,0.00
2013-1-15,79.8,75.4,72.7,68.0,66.2,63.0,78,73,66,30.09,30.00,7,2,0,0.00
2013-1-16,80.9,75.4,69.8,71.0,67.6,63.0,88,77,68,30.06,29.97,7,2,0,0.27
2013-1-17,79.2,71.1,61.3,71.0,66.3,54.0,93,85,72,30.05,29.94,19,3,0,0.08
2013-1-18,70.8,62.8,55.0,62.0,53.6,47.0,79,72,63,30.18,30.05,11,4,0,0.00
2013-1-19,71.5,68.6,62.9,67.0,63.9,60.0,93,85,68,30.16,30.04,7,2,0,0.50
2013-1-20,79.6,70.9,65.0,69.0,65.7,63.0,95,84,68,30.10,29.96,4,1,0,0.01
2013-1-21,79.6,73.3,67.4,71.0,67.1,64.0,92,81,69,30.02,29.91,11,3,0,0.00
2013-1-22,76.5,69.7,63.9,64.0,60.0,54.0,90,73,55,30.15,29.96,13,4,0,0.00
2013-1-23,74.6,70.3,63.4,56.0,53.3,51.0,76,56,47,30.23,30.13,14,5,0,0.00
2013-1-24,74.9,66.3,58.7,58.0,54.9,51.0,85,68,53,30.23,30.14,9,2,0,0.00
2013-1-25,77.4,67.9,59.6,59.0,55.2,51.0,78,65,47,30.23,30.13,8,1,0,0.00
2013-1-26,77.0,69.2,59.9,63.0,59.1,55.0,87,71,54,30.20,30.11,9,2,0,0.00
2013-1-27,78.1,73.9,70.6,66.0,63.3,61.0,77,70,58,30.23,30.14,10,4,0,0.00
2013-1-28,79.4,75.4,72.5,67.0,64.7,63.0,78,70,60,30.27,30.18,10,2,0,0.00
2013-1-29,80.5,75.6,73.2,70.0,67.1,62.0,82,75,66,30.19,30.08,12,3,0,0.00
2013-1-30,79.9,75.3,72.7,69.0,66.2,64.0,83,73,64,30.08,29.93,16,5,0,0.00
2013-1-31,75.1,69.4,61.8,72.0,61.2,42.0,92,76,48,30.12,29.91,13,3,0,0.00
2013-2-1,73.9,65.1,54.2,57.0,48.9,40.0,67,56,47,30.20,30.10,13,5,0,0.00
2013-2-2,73.9,66.7,58.4,55.0,51.0,38.0,71,58,45,30.20,30.07,10,2,0,0.00
2013-2-3,75.4,65.5,57.5,55.0,50.8,44.0,86,61,33,30.11,30.01,10,2,0,0.00
2013-2-4,74.2,64.2,53.5,56.0,48.0,38.0,75,57,37,30.09,29.98,5,1,0,0.00
2013-2-5,77.7,68.3,57.0,64.0,58.3,52.0,87,71,57,30.03,29.95,8,2,0,0.00
2013-2-6,79.9,72.0,63.5,66.0,63.2,60.0,90,75,59,30.05,29.97,6,1,0,0.00
2013-2-7,80.5,74.9,70.4,67.0,64.6,62.0,84,70,61,30.03,29.90,10,2,0,0.00
2013-2-8,84.1,74.7,69.4,72.0,68.3,61.0,92,81,60,29.98,29.87,11,2,0,0.04
2013-2-9,78.8,71.7,64.3,67.0,62.8,58.0,90,74,64,30.12,29.96,9,3,0,0.00
2013-2-10,78.1,73.5,71.5,65.0,61.8,59.0,73,67,56,30.20,30.10,12,3,0,0.00
2013-2-11,79.2,74.3,71.3,66.0,64.3,62.0,76,71,63,30.17,30.07,12,3,0,0.00
2013-2-12,83.0,76.0,70.8,69.0,67.2,65.0,84,75,59,30.07,29.94,17,5,0,0.00
2013-2-13,83.6,76.9,72.1,72.0,70.3,68.0,90,80,65,29.97,29.87,17,5,0,0.00
2013-2-14,82.8,74.2,64.0,74.0,68.9,62.0,92,84,62,29.98,29.82,11,3,0,0.45
2013-2-15,73.5,67.5,64.3,68.0,65.2,62.0,95,92,82,29.96,29.90,7,2,0,0.68
2013-2-16,74.7,66.1,56.0,64.0,56.7,45.0,94,74,38,30.04,29.83,14,4,0,0.03
2013-2-17,59.0,53.0,46.2,46.0,29.5,19.0,71,43,24,30.24,30.03,18,5,0,0.00
2013-2-18,69.9,60.5,48.6,56.0,46.2,36.0,66,60,49,30.25,30.14,13,3,0,0.00
2013-2-19,77.0,72.1,68.1,67.0,62.1,55.0,84,71,62,30.14,30.04,15,3,0,0.00
2013-2-20,78.1,71.9,66.8,68.0,65.2,59.0,91,80,55,30.06,29.97,9,1,0,0.00
2013-2-21,80.7,75.2,70.8,69.0,66.4,64.0,82,74,63,30.04,29.94,8,1,0,0.00
2013-2-22,81.4,76.5,73.5,72.0,70.1,68.0,87,80,71,30.05,29.97,13,3,0,0.00
2013-2-23,83.4,77.5,73.5,72.0,70.6,68.0,88,79,68,30.00,29.88,15,6,0,0.00
2013-2-24,84.9,77.9,72.3,74.0,71.2,69.0,93,80,61,29.95,29.85,12,2,0,0.00
2013-2-25,84.3,77.6,71.6,73.0,70.7,68.0,90,80,65,29.87,29.78,16,4,0,0.00
2013-2-26,82.4,78.9,75.8,74.0,72.0,70.0,87,79,68,29.86,29.76,18,6,0,0.03
2013-2-27,77.4,72.0,67.3,73.0,67.4,64.0,91,85,68,29.92,29.82,11,1,0,0.20
2013-2-28,72.1,66.0,61.0,65.0,54.4,48.0,92,68,49,29.95,29.86,10,2,0,0.01
2013-3-1,66.1,63.4,59.3,57.0,52.1,47.0,81,67,57,29.93,29.85,10,2,0,0.01
2013-3-2,66.8,58.9,53.9,47.0,42.4,39.0,66,55,41,29.98,29.89,12,4,0,0.00
2013-3-3,62.7,56.2,51.6,46.0,42.7,40.0,77,62,47,30.07,29.90,14,4,0,0.00
2013-3-4,66.1,55.7,44.9,45.0,39.3,31.0,72,56,29,30.15,30.05,12,3,0,0.00
2013-3-5,74.6,63.9,51.3,57.0,52.0,42.0,86,66,52,30.12,30.03,10,2,0,0.00
2013-3-6,77.9,66.8,54.2,64.0,52.0,30.0,87,62,27,30.05,29.90,14,5,0,0.00
2013-3-7,70.9,59.8,47.9,52.0,43.1,37.0,76,56,33,30.12,30.02,11,2,0,0.00
2013-3-8,73.9,64.9,54.8,54.0,51.5,44.0,87,64,38,30.14,30.05,9,2,0,0.00
2013-3-9,74.6,66.5,57.0,59.0,53.5,49.0,82,64,54,30.13,30.05,12,3,0,0.00
2013-3-10,76.5,71.2,67.1,61.0,56.0,51.0,69,59,53,30.10,30.01,11,3,0,0.00
2013-3-11,78.5,73.0,69.4,62.0,60.6,58.0,70,65,56,30.05,29.91,15,3,0,0.00
2013-3-12,80.5,75.2,72.0,69.0,65.6,62.0,79,72,64,29.96,29.87,16,6,0,0.00
2013-3-13,76.5,68.0,58.7,66.0,56.9,49.0,86,69,50,30.07,29.93,13,4,0,0.00
2013-3-14,73.2,63.4,55.6,52.0,46.5,34.0,79,57,24,30.14,30.04,16,5,0,0.00
2013-3-15,72.5,63.8,55.4,54.0,48.9,42.0,76,59,43,30.19,30.10,10,3,0,0.00
2013-3-16,75.4,66.8,56.3,56.0,53.0,51.0,85,63,47,30.14,30.04,9,2,0,0.00
2013-3-17,77.2,69.7,59.6,62.0,57.3,53.0,84,66,51,30.09,29.98,9,2,0,0.00
2013-3-18,79.9,73.9,70.1,70.0,65.9,60.0,90,76,66,30.03,29.93,13,4,0,0.06
2013-3-19,79.0,73.0,69.9,71.0,68.1,65.0,95,85,62,29.97,29.81,10,2,0,0.04
2013-3-20,82.4,72.9,65.0,69.0,65.3,59.0,92,78,61,29.93,29.76,15,3,0,0.05
2013-3-21,74.0,68.5,63.2,61.0,55.9,48.0,88,66,41,29.90,29.79,9,3,0,0.00
2013-3-22,76.7,70.7,60.4,71.0,61.3,53.0,87,73,57,29.96,29.85,9,2,0,0.00
2013-3-23,85.7,78.5,73.3,74.0,71.8,70.0,92,80,62,29.94,29.77,16,5,0,0.00
2013-3-24,90.5,81.1,75.3,74.0,71.9,69.0,92,75,51,29.84,29.66,19,7,0,0.00
2013-3-25,81.1,76.4,67.4,73.0,60.8,38.0,88,62,30,29.95,29.70,11,3,0,0.00
2013-3-26,70.4,63.1,54.2,45.0,37.3,32.0,61,40,25,30.16,29.95,13,6,0,0.00
2013-3-27,69.6,58.5,47.6,48.0,41.8,34.0,69,55,42,30.19,30.11,11,3,0,0.00
2013-3-28,72.7,63.5,53.8,49.0,44.8,37.0,68,52,38,30.20,30.11,9,3,0,0.00
2013-3-29,75.3,66.9,58.9,54.0,49.3,40.0,61,54,44,30.22,30.14,12,3,0,0.00
2013-3-30,76.3,70.2,65.0,55.0,52.6,48.0,64,54,40,30.21,30.11,6,1,0,0.00
2013-3-31,80.7,73.8,68.3,66.0,62.1,54.0,76,67,56,30.14,30.00,12,3,0,0.00
2013-4-1,84.5,75.2,69.8,71.0,67.8,63.0,88,78,50,30.01,29.92,12,4,0,0.66
2013-4-2,80.9,73.4,66.0,68.0,65.5,63.0,93,77,58,30.04,29.95,9,2,0,0.01
2013-4-3,82.8,76.3,72.0,70.0,68.3,66.0,84,77,65,30.02,29.95,11,2,0,0.00
2013-4-4,84.0,76.8,69.8,73.0,70.2,66.0,92,80,67,30.00,29.88,16,5,0,0.65
2013-4-5,73.7,68.8,66.1,71.0,65.7,63.0,93,89,79,29.94,29.76,11,2,0,1.04
2013-4-6,77.7,69.3,60.2,66.0,61.4,57.0,93,77,62,30.04,29.88,13,5,0,0.00
2013-4-7,77.9,73.6,71.3,68.0,64.3,62.0,86,73,64,30.08,29.97,10,3,0,0.04
2013-4-8,80.7,75.1,69.8,64.0,61.8,60.0,76,64,52,30.08,29.99,7,1,0,0.00
2013-4-9,82.6,76.6,73.2,70.0,66.6,64.0,78,71,62,30.10,30.00,7,2,0,0.00
2013-4-10,84.3,78.3,74.0,73.0,70.6,66.0,84,77,67,30.06,29.96,11,2,0,0.00
2013-4-11,84.1,79.3,76.5,73.0,71.7,70.0,84,77,68,29.98,29.86,12,4,0,0.00
2013-4-12,85.7,80.6,78.1,76.0,74.0,72.0,89,80,70,29.91,29.83,15,7,0,0.06
2013-4-13,84.0,79.2,74.7,75.0,72.8,70.0,88,81,70,29.95,29.84,12,3,0,0.41
2013-4-14,85.1,80.5,77.0,76.0,74.0,72.0,89,81,69,29.93,29.85,12,4,0,0.00
2013-4-15,86.5,79.6,73.5,77.0,74.0,70.0,90,83,70,30.02,29.88,10,3,0,0.40
2013-4-16,85.5,79.7,73.7,76.0,73.7,69.0,91,82,70,30.07,29.97,10,2,0,0.22
2013-4-17,83.2,78.7,76.1,74.0,71.1,69.0,90,78,66,30.06,29.97,11,4,0,0.00
2013-4-18,86.5,80.6,76.7,74.0,71.2,69.0,82,73,63,30.02,29.93,10,3,0,0.00
2013-4-19,86.7,81.9,77.9,75.0,72.5,69.0,83,73,59,30.00,29.92,19,6,0,0.00
2013-4-20,87.0,79.4,71.8,76.0,73.1,67.0,91,81,65,30.03,29.89,13,3,0,0.79
2013-4-21,84.0,77.6,73.5,75.0,72.2,70.0,92,84,67,30.05,29.94,9,2,0,0.01
2013-4-22,83.0,75.5,70.4,72.0,70.0,67.0,92,83,66,30.01,29.88,9,1,0,0.47
2013-4-23,82.4,75.6,68.8,71.0,66.9,62.0,93,76,60,30.04,29.90,16,5,0,0.01
2013-4-24,83.6,77.7,73.7,68.0,64.7,61.0,70,64,58,30.09,29.99,10,3,0,0.00
2013-4-25,82.2,77.0,73.2,64.0,61.9,58.0,69,60,46,30.14,30.03,10,3,0,0.00
2013-4-26,81.4,76.6,71.8,66.0,63.5,61.0,71,64,56,30.17,30.07,11,4,0,0.00
2013-4-27,81.6,77.3,73.2,68.0,64.3,61.0,72,64,57,30.16,30.04,10,4,0,0.00
2013-4-28,83.4,78.0,74.7,67.0,64.9,61.0,72,65,53,30.06,29.95,10,3,0,0.00
2013-4-29,83.2,77.8,75.6,72.0,69.0,64.0,87,74,65,29.99,29.89,10,2,0,0.07
2013-4-30,81.1,76.2,72.0,75.0,70.3,68.0,89,82,72,29.96,29.88,9,2,0,0.52
2013-5-1,83.6,76.0,72.0,74.0,71.1,68.0,92,85,71,29.96,29.87,11,1,0,0.82
2013-5-2,80.9,74.4,68.4,73.0,70.1,66.0,94,86,72,29.91,29.73,14,4,0,2.63
2013-5-3,85.7,76.3,68.1,71.0,68.4,65.0,93,78,51,29.76,29.64,13,2,0,0.08
2013-5-4,89.0,78.5,69.4,70.0,67.5,65.0,92,71,47,29.76,29.64,14,4,0,0.01
2013-5-5,83.8,75.7,69.6,67.0,62.8,56.0,88,66,46,29.89,29.73,10,3,0,0.00
2013-5-6,83.2,73.8,61.6,66.0,59.2,55.0,83,62,41,29.97,29.88,13,3,0,0.07
2013-5-7,83.6,74.5,65.5,67.0,62.5,58.0,83,67,45,30.02,29.93,15,3,0,0.00
2013-5-8,84.1,75.5,64.2,68.0,62.2,56.0,87,65,39,30.09,30.00,10,1,0,0.00
2013-5-9,87.2,78.0,68.3,76.0,67.7,59.0,84,71,61,30.10,30.02,11,1,0,0.05
2013-5-10,88.2,80.8,73.7,75.0,72.0,66.0,82,75,56,30.08,29.98,8,2,0,0.00
2013-5-11,87.2,80.5,76.5,76.0,73.2,71.0,89,78,64,30.03,29.94,14,3,0,0.07
2013-5-12,89.3,80.1,74.9,73.0,71.9,69.0,90,77,55,30.02,29.91,12,3,0,0.21
2013-5-13,89.9,78.9,72.5,76.0,71.9,68.0,92,80,48,30.04,29.95,7,1,0,0.00
2013-5-14,81.4,77.8,75.1,70.0,62.2,57.0,76,59,48,30.13,30.01,14,6,0,0.00
2013-5-15,81.8,77.4,73.9,64.0,61.2,58.0,65,58,51,30.14,30.05,13,3,0,0.00
2013-5-16,84.1,78.0,73.2,66.0,62.4,59.0,69,59,49,30.07,29.99,7,2,0,0.00
2013-5-17,87.8,80.5,74.7,73.0,69.6,65.0,85,70,55,30.04,29.96,9,1,0,0.04
2013-5-18,85.9,80.7,77.7,75.0,71.9,70.0,84,75,65,30.06,29.99,10,2,0,0.07
2013-5-19,86.3,80.9,76.7,72.0,70.0,68.0,79,70,57,30.05,29.95,10,1,0,0.00
2013-5-20,81.4,77.8,71.1,75.0,72.5,69.0,92,84,76,30.02,29.92,7,2,0,2.56
2013-5-21,83.6,76.5,70.6,75.0,71.6,69.0,93,85,73,30.00,29.88,7,2,0,0.27
2013-5-22,85.3,79.0,72.3,77.0,72.4,69.0,93,80,61,29.91,29.84,6,2,0,0.96
2013-5-23,93.6,82.7,74.9,76.0,73.0,67.0,88,74,41,29.96,29.86,11,2,0,0.00
2013-5-24,90.3,82.4,75.4,76.0,73.4,71.0,88,75,56,30.02,29.91,10,2,0,0.00
2013-5-25,86.1,81.3,75.6,74.0,69.4,65.0,86,68,53,30.11,29.99,13,5,0,0.00
2013-5-26,84.9,80.2,76.7,69.0,66.8,64.0,73,64,54,30.13,30.05,13,5,0,0.00
2013-5-27,85.3,80.6,77.2,74.0,71.3,67.0,81,73,67,30.10,30.01,17,5,0,0.00
2013-5-28,83.4,78.7,74.9,74.0,72.6,71.0,91,81,72,30.06,29.99,8,2,0,0.58
2013-5-29,80.1,76.9,74.0,74.0,71.8,69.0,92,84,76,30.04,29.97,11,3,0,29.66
2013-5-30,82.6,79.0,77.4,75.0,72.3,69.0,89,80,74,30.02,29.95,12,3,0,0.17
2013-5-31,84.5,80.3,76.7,76.0,74.0,72.0,88,81,73,30.01,29.95,9,2,0,0.02
2013-6-1,87.2,79.4,75.6,77.0,74.3,72.0,92,84,70,29.98,29.91,9,1,0,0.27
2013-6-2,89.0,80.3,75.1,77.0,74.0,72.0,94,82,65,29.96,29.88,11,1,0,0.00
2013-6-3,84.5,80.3,75.8,76.0,73.4,71.0,88,80,66,29.99,29.87,9,1,0,0.08
2013-6-4,83.0,79.2,74.7,78.0,74.5,71.0,93,85,74,30.00,29.92,4,1,0,0.11
2013-6-5,84.3,81.3,79.6,78.0,76.0,74.0,89,84,78,29.98,29.85,6,1,0,0.06
2013-6-6,88.6,81.0,75.3,79.0,76.1,72.0,92,85,70,29.87,29.75,22,7,0,1.17
2013-6-7,88.0,77.9,72.7,79.0,74.4,71.0,95,89,70,29.97,29.79,12,3,0,4.93
2013-6-8,88.4,81.1,73.9,79.0,76.0,72.0,95,85,70,30.05,29.92,16,2,0,0.00
2013-6-9,88.6,82.6,79.8,77.0,75.4,74.0,88,79,66,30.06,29.99,7,1,0,0.11
2013-6-10,88.6,83.6,79.2,78.0,76.7,75.0,89,80,70,30.05,29.96,13,2,0,0.05
2013-6-11,88.4,83.3,79.8,78.0,76.3,72.0,87,80,63,30.05,29.96,12,2,0,0.01
2013-6-12,87.4,81.1,78.5,78.0,75.6,73.0,89,83,73,30.04,29.97,5,0,0,0.00
2013-8-6,89.3,16.5,88.4,78.0,-67.1,-99.9,70,13,67,29.91,29.85,6,-813,0,0.00
2013-8-7,89.5,37.1,83.2,78.0,-24.6,-99.9,84,30,63,29.94,29.85,11,-571,0,0.01
2013-8-8,91.6,39.4,85.3,79.0,-22.5,-99.9,77,28,60,29.97,29.87,9,-558,0,0.01
2013-8-9,88.4,38.5,83.8,77.0,-21.9,-99.9,74,30,63,30.01,29.91,14,-550,0,0.00
2013-8-10,92.5,40.6,84.7,78.0,-19.9,-99.9,77,30,60,30.07,29.99,7,-546,0,0.00
2013-8-11,91.4,40.2,86.5,79.0,-20.1,-99.9,73,31,65,30.09,30.02,6,-548,0,0.00
2013-8-12,90.5,38.2,83.8,77.0,-24.2,-99.9,77,28,60,30.06,29.97,11,-566,0,0.00
2013-8-13,91.2,37.6,84.3,77.0,-25.8,-99.9,79,27,60,30.00,29.91,7,-578,0,0.00
2013-8-14,91.8,36.7,86.3,76.0,-28.3,-99.9,71,25,58,29.98,29.89,10,-589,0,0.00
2013-8-15,87.2,24.3,79.8,78.0,-48.0,-99.9,91,24,70,30.02,29.91,7,-705,0,0.00
2013-8-16,91.2,38.4,83.2,80.0,-22.8,-99.9,88,31,65,30.01,29.93,6,-567,0,0.00
2013-8-17,92.3,37.6,87.6,79.0,-25.9,-99.9,73,28,61,30.03,29.96,8,-582,0,0.00
2013-8-18,91.2,38.4,83.6,80.0,-23.2,-99.9,79,30,65,30.04,29.94,7,-567,0,0.00
2013-8-19,91.6,39.4,84.3,78.0,-21.4,-99.9,81,31,63,30.03,29.92,6,-556,0,0.02
2013-8-20,91.2,40.0,84.0,78.0,-20.0,-99.9,77,31,60,30.01,29.94,11,-546,0,0.00
2013-8-21,91.0,29.8,82.4,81.0,-38.9,-99.9,85,26,69,30.02,29.94,10,-658,0,0.14
2013-8-22,90.3,39.7,85.1,81.0,-19.6,-99.9,84,33,69,30.02,29.91,7,-549,0,0.08
2013-8-23,90.7,37.0,85.3,79.0,-25.2,-99.9,79,30,66,29.97,29.89,5,-578,0,0.01
2013-8-24,91.8,33.5,84.7,79.0,-33.5,-99.9,77,25,61,30.06,29.93,6,-624,0,0.00
2013-8-25,87.6,35.2,80.3,77.0,-27.0,-99.9,87,31,67,30.10,29.98,11,-581,0,0.00
2013-8-26,87.8,28.6,77.6,78.0,-39.2,-99.9,89,27,68,30.07,29.97,7,-652,0,0.08
2013-8-27,83.2,31.8,77.2,76.0,-31.8,-99.9,88,30,70,30.01,29.93,10,-605,0,0.15
2013-8-28,86.5,28.9,76.3,77.0,-39.2,-99.9,89,27,63,30.00,29.90,7,-652,0,0.01
2013-8-29,90.1,33.2,84.0,78.0,-33.0,-99.9,78,27,62,29.98,29.88,7,-620,0,0.00
2013-8-30,92.1,36.5,83.8,77.0,-27.4,-99.9,74,27,53,29.97,29.86,10,-581,0,0.00
2013-8-31,91.6,27.2,76.8,78.0,-44.9,-99.9,87,22,62,29.94,29.88,6,-686,0,0.00
2013-9-1,89.5,35.4,83.0,79.0,-28.0,-99.9,82,29,67,29.95,29.88,5,-593,0,0.00
2013-9-2,91.0,29.5,78.3,78.0,-38.8,-99.9,91,26,63,29.99,29.90,7,-651,0,0.00
2013-9-3,90.3,35.0,80.7,79.0,-28.0,-99.9,89,30,64,29.98,29.89,5,-592,0,0.00
2013-9-4,91.4,34.9,85.1,79.0,-28.8,-99.9,78,29,64,30.02,29.90,6,-599,0,0.00
2013-9-5,90.1,30.1,84.9,79.0,-38.9,-99.9,78,25,69,30.02,29.95,7,-655,0,0.00
2013-9-6,91.8,37.2,84.7,78.0,-26.2,-99.9,77,28,62,29.99,29.88,10,-582,0,0.00
2013-9-7,87.0,27.2,79.2,77.0,-43.1,-99.9,88,25,66,29.94,29.85,7,-676,0,0.00
2013-9-8,89.0,32.3,80.1,77.0,-34.2,-99.9,86,26,62,29.90,29.81,5,-624,0,0.00
2013-9-9,90.7,36.3,83.0,77.0,-27.1,-99.9,79,28,61,29.94,29.85,11,-583,0,0.00
2013-9-10,89.0,31.6,78.3,78.0,-33.8,-99.9,87,29,66,29.99,29.90,18,-623,0,0.42
2013-9-11,88.2,25.5,82.4,78.0,-47.4,-99.9,80,22,68,29.99,29.91,9,-700,0,0.00
2013-9-12,85.1,27.4,81.1,78.0,-42.3,-99.9,87,26,67,29.97,29.84,3,-673,0,0.00
2013-9-13,90.3,36.5,78.6,76.0,-27.3,-99.9,91,27,57,29.85,29.76,5,-582,0,0.00
2013-9-14,89.9,35.8,80.5,77.0,-28.6,-99.9,87,27,56,29.93,29.78,5,-593,0,0.00
2013-9-15,84.1,15.6,79.4,79.0,-66.2,-99.9,90,16,82,30.00,29.87,7,-809,0,0.01
2013-9-16,83.8,28.3,79.8,77.0,-39.6,-99.9,89,27,71,30.00,29.91,7,-655,0,0.02
2013-9-17,83.4,25.8,77.4,79.0,-43.1,-99.9,92,28,81,29.97,29.87,13,-675,0,0.05
2013-9-18,85.3,26.9,76.7,78.0,-42.5,-99.9,92,26,73,29.97,29.86,7,-672,0,0.00
2013-9-19,88.2,32.5,79.2,78.0,-33.2,-99.9,90,28,67,29.96,29.88,10,-619,0,0.00
2013-9-20,86.3,34.5,81.8,72.0,-30.5,-99.9,69,26,58,29.95,29.85,11,-591,0,0.00
2013-9-21,87.2,34.8,82.2,77.0,-28.1,-99.9,77,30,68,29.87,29.73,6,-588,0,0.00
2013-9-22,91.2,34.0,78.6,78.0,-30.2,-99.9,88,29,57,29.83,29.72,13,-602,0,0.07
2013-9-23,88.2,25.0,79.0,78.0,-47.3,-99.9,90,23,68,29.93,29.81,6,-701,0,0.01
2013-9-24,91.0,34.5,82.6,81.0,-29.5,-99.9,92,29,64,29.93,29.84,10,-602,0,0.01
2013-9-25,91.2,30.6,77.6,79.0,-35.3,-99.9,90,29,65,29.87,29.77,11,-634,0,0.36
2013-9-26,91.0,29.6,82.2,80.0,-39.3,-99.9,91,25,64,29.82,29.75,15,-657,0,0.04
2013-9-27,89.7,34.8,76.8,75.0,-29.7,-99.9,92,27,53,29.87,29.77,9,-592,0,0.00
2013-9-28,88.2,33.5,79.9,75.0,-31.4,-99.9,85,27,62,29.92,29.82,10,-604,0,0.00
2013-9-29,86.5,32.0,80.3,73.0,-36.9,-99.9,73,24,58,29.92,29.84,7,-619,0,0.00
2013-9-30,87.8,33.5,82.8,74.0,-32.6,-99.9,68,25,62,29.95,29.85,11,-609,0,0.00
2013-10-1,87.8,32.9,83.8,75.0,-33.2,-99.9,73,26,64,29.97,29.90,13,-614,0,0.00
2013-10-2,81.4,14.8,77.0,77.0,-67.0,-99.9,93,17,79,30.00,29.91,6,-811,0,0.08
2013-10-3,85.5,34.6,79.8,77.0,-26.7,-99.9,88,33,73,30.01,29.90,5,-582,0,0.05
2013-10-4,86.5,35.8,81.2,74.0,-26.6,-99.9,76,29,65,30.00,29.94,11,-574,0,0.00
2013-10-5,87.2,34.0,78.8,75.0,-30.9,-99.9,81,26,60,29.99,29.88,8,-598,0,0.01
2013-10-6,89.3,33.6,78.5,74.0,-34.6,-99.9,79,24,56,29.93,29.82,8,-610,0,0.00
2013-10-7,90.7,29.0,83.4,77.0,-42.6,-99.9,73,21,56,29.86,29.77,12,-668,0,0.00
2013-10-8,89.3,35.0,79.6,78.0,-28.5,-99.9,92,29,62,29.89,29.81,8,-592,0,0.00
2013-10-9,87.2,30.3,75.3,76.0,-35.7,-99.9,90,28,68,29.94,29.87,8,-630,0,0.00
2013-10-10,86.5,33.5,75.8,74.0,-31.7,-99.9,89,27,62,29.96,29.89,11,-601,0,0.00
2013-10-11,85.7,33.2,80.7,71.0,-32.9,-99.9,68,25,57,29.96,29.89,11,-601,0,0.00
2013-10-12,86.3,33.3,79.6,71.0,-33.2,-99.9,69,24,54,29.98,29.90,6,-602,0,0.00
2013-10-13,86.3,33.1,78.3,71.0,-33.6,-99.9,79,23,52,30.00,29.92,10,-602,0,0.00
2013-10-14,85.7,31.7,78.8,69.0,-38.0,-99.9,68,22,53,29.97,29.85,8,-619,0,0.00
2013-10-15,-200.0,0.0,200.0,-99.9,-99.9,-99.9,0,0,100,29.91,29.85,0,-999,0,0.00
2013-10-16,84.5,22.2,82.0,71.0,-54.5,-99.9,68,17,64,29.90,29.84,7,-731,0,0.00
2013-10-17,87.6,33.1,80.1,73.0,-33.1,-99.9,76,25,60,29.92,29.84,5,-609,0,0.00
2013-10-18,88.4,34.5,77.4,74.0,-30.0,-99.9,84,27,60,29.94,29.85,6,-594,0,0.00
2013-10-19,88.2,33.3,82.2,75.0,-32.7,-99.9,74,26,62,29.92,29.83,13,-611,0,0.00
2013-10-20,89.0,26.4,80.9,78.0,-45.9,-99.9,86,22,69,29.93,29.83,7,-693,0,0.00
2013-10-21,88.0,32.9,81.2,77.0,-32.1,-99.9,85,29,65,29.96,29.86,9,-613,0,0.02
2013-10-22,88.4,33.1,82.2,78.0,-31.9,-99.9,83,28,65,29.93,29.79,13,-612,0,0.03
2013-10-23,88.0,28.8,78.6,78.0,-39.8,-99.9,88,26,65,29.90,29.77,8,-655,0,0.06
2013-10-24,80.3,22.8,76.8,69.0,-51.4,-99.9,76,20,67,30.04,29.88,10,-708,0,0.00
2013-10-25,82.4,26.8,73.7,69.0,-44.6,-99.9,82,21,55,30.09,30.00,14,-663,0,0.00
2013-10-26,83.6,31.7,77.6,65.0,-35.8,-99.9,62,22,51,30.10,30.00,10,-606,0,0.00
2013-10-27,82.4,33.9,72.1,66.0,-30.0,-99.9,73,25,52,30.04,29.97,7,-572,0,0.00
2013-10-28,83.8,33.4,76.7,69.0,-32.0,-99.9,70,24,49,30.09,30.00,12,-589,0,0.00
2013-10-29,84.5,33.0,78.6,72.0,-32.3,-99.9,68,26,58,30.12,30.04,12,-597,0,0.00
2013-10-30,84.0,30.9,79.0,69.0,-36.8,-99.9,68,23,57,30.13,30.04,12,-621,0,0.00
2013-10-31,86.7,35.5,78.5,73.0,-27.3,-99.9,81,28,59,30.07,29.94,7,-575,0,0.01
2013-11-1,86.7,36.3,80.7,75.0,-25.2,-99.9,78,30,63,29.96,29.84,9,-568,0,0.00
2013-11-2,89.0,33.3,75.3,74.0,-34.1,-99.9,92,23,46,29.90,29.76,7,-609,0,0.00
2013-11-3,83.2,29.3,72.5,65.0,-39.7,-99.9,71,21,52,29.97,29.84,13,-629,0,0.00
2013-11-4,82.2,25.0,76.5,69.0,-48.8,-99.9,72,18,46,30.02,29.95,15,-685,0,0.00
2013-11-5,83.6,22.8,79.6,71.0,-52.7,-99.9,70,18,63,30.03,29.96,17,-718,0,0.00
2013-11-6,84.1,32.2,78.3,74.0,-32.4,-99.9,80,28,66,30.01,29.94,12,-604,0,0.00
2013-11-7,85.9,33.2,74.2,72.0,-30.9,-99.9,87,28,62,29.96,29.87,7,-594,0,0.00
2013-11-8,84.0,28.8,73.5,74.0,-38.4,-99.9,93,27,65,29.99,29.89,17,-639,0,0.00
2013-11-9,80.9,26.4,77.7,74.0,-42.3,-99.9,84,27,78,30.05,29.95,15,-663,0,0.00
2013-11-10,84.1,31.7,78.6,72.0,-33.2,-99.9,77,28,67,30.07,29.99,10,-608,0,0.00
2013-11-11,83.2,30.6,78.8,73.0,-35.9,-99.9,77,26,67,30.06,29.99,10,-622,0,0.00
2013-11-12,84.0,31.4,76.5,72.0,-34.2,-99.9,84,27,65,30.02,29.92,9,-612,0,0.00
2013-11-13,79.8,16.0,70.4,68.0,-67.2,-99.9,89,14,59,30.15,29.94,16,-789,0,0.08
2013-11-14,77.2,26.6,72.5,62.0,-42.9,-99.9,66,22,59,30.18,30.07,12,-643,0,0.00
2013-11-15,81.4,25.9,76.0,71.0,-45.2,-99.9,85,22,61,30.08,29.97,7,-672,0,0.00
2013-11-16,80.7,27.2,74.0,71.0,-41.0,-99.9,86,26,65,30.05,29.95,6,-652,0,0.01
2013-11-17,84.1,32.9,78.5,73.0,-31.5,-99.9,73,28,63,30.02,29.95,7,-599,0,0.00
2013-11-18,84.1,33.0,75.8,72.0,-30.6,-99.9,87,29,66,29.98,29.87,4,-595,0,0.00
2013-11-19,84.1,30.0,73.9,75.0,-34.5,-99.9,90,31,64,29.90,29.81,5,-620,0,0.09
2013-11-20,80.7,28.6,73.5,75.0,-36.0,-99.9,95,32,77,30.00,29.87,3,-631,0,0.44
2013-11-21,82.8,29.3,74.4,75.0,-36.1,-99.9,95,30,68,30.08,30.00,7,-630,0,0.00
2013-11-22,81.2,26.8,77.9,73.0,-42.0,-99.9,82,26,74,30.08,30.00,12,-660,0,8.71
2013-11-23,80.9,27.9,75.1,73.0,-39.2,-99.9,84,28,74,30.02,29.92,11,-644,0,0.00
2013-11-24,81.2,30.4,72.5,70.0,-34.9,-99.9,89,28,61,30.08,29.93,17,-612,0,0.02
2013-11-25,75.8,22.3,72.7,68.0,-49.9,-99.9,83,23,71,30.13,29.99,15,-696,0,0.00
2013-11-26,81.8,27.8,78.1,75.0,-39.4,-99.9,85,28,77,29.99,29.79,16,-650,0,0.00
2013-11-27,78.1,23.1,72.7,72.0,-50.0,-99.9,95,21,55,30.06,29.75,13,-696,0,0.00
2013-11-28,73.5,24.4,51.0,63.0,-43.1,-99.9,86,25,56,30.18,30.05,12,-633,0,0.00
2013-11-29,76.5,25.5,64.2,63.0,-44.6,-99.9,84,22,59,30.20,30.12,15,-653,0,0.00
2013-11-30,80.3,24.7,65.3,70.0,-44.8,-99.9,91,26,68,30.13,30.04,16,-667,0,0.11
2013-12-1,75.1,25.3,64.7,71.0,-40.3,-99.9,93,32,82,30.04,29.89,7,-645,0,0.14
2013-12-2,74.9,26.5,66.1,67.0,-38.4,-99.9,96,30,59,29.88,29.76,13,-623,0,0.00
2013-12-3,79.2,28.2,67.4,65.0,-39.7,-99.9,89,24,61,29.95,29.84,6,-630,0,0.00
2013-12-4,81.1,21.6,69.8,70.0,-54.1,-99.9,92,19,62,30.04,29.93,10,-725,0,0.00
2013-12-5,83.2,30.6,77.2,72.0,-35.0,-99.9,76,28,69,30.11,30.02,10,-620,0,0.00
2013-12-6,82.8,29.6,78.3,71.0,-38.2,-99.9,75,24,61,30.13,30.03,15,-633,0,0.00
2013-12-7,83.0,29.5,77.7,72.0,-37.8,-99.9,76,26,67,30.16,30.08,7,-634,0,0.00
2013-12-8,83.4,32.9,76.8,72.0,-30.9,-99.9,77,28,63,30.15,30.07,7,-592,0,0.00
2013-12-9,83.6,29.5,79.2,71.0,-38.9,-99.9,70,24,59,30.14,30.05,10,-637,0,0.00
2013-12-10,83.8,31.4,77.6,73.0,-33.7,-99.9,80,28,68,30.11,30.04,10,-613,0,0.00
2013-12-11,83.6,31.1,78.1,75.0,-33.6,-99.9,84,29,71,30.14,30.07,9,-616,0,0.00
2013-12-12,80.3,29.6,73.2,73.0,-34.6,-99.9,91,30,69,30.16,30.08,12,-612,0,0.00
2013-12-13,78.8,23.1,73.7,69.0,-49.6,-99.9,78,22,68,30.13,30.04,12,-696,0,0.00
2013-12-14,81.6,29.2,77.2,73.0,-37.2,-99.9,82,28,72,30.05,29.94,9,-633,0,0.00
2013-12-15,86.5,32.7,77.4,75.0,-31.4,-99.9,89,29,63,30.00,29.88,8,-602,0,0.00
2013-12-16,73.5,21.3,68.6,62.0,-52.4,-99.9,74,20,66,30.10,29.98,7,-704,0,0.00
2013-12-17,77.9,28.1,63.5,66.0,-38.2,-99.9,90,26,59,30.11,30.04,10,-619,0,0.00
2013-12-18,77.2,26.4,64.7,61.0,-43.0,-99.9,84,22,54,30.16,30.08,12,-639,0,0.00
2013-12-19,79.0,27.1,72.1,63.0,-42.8,-99.9,65,21,55,30.17,30.09,9,-644,0,0.00
2013-12-20,82.2,27.8,77.0,70.0,-41.2,-99.9,75,24,64,30.13,30.05,8,-651,0,0.00
2013-12-21,82.6,29.3,77.6,74.0,-39.4,-99.9,80,26,73,30.09,30.00,12,-637,0,0.00
2013-12-22,83.8,29.2,78.8,73.0,-38.1,-99.9,80,26,69,30.11,30.03,14,-639,0,0.00
2013-12-23,83.4,29.8,78.6,74.0,-36.9,-99.9,81,27,68,30.13,30.07,15,-633,0,0.00
2013-12-24,84.9,25.8,72.5,73.0,-45.0,-99.9,93,24,58,30.12,30.02,9,-675,0,0.00
2013-12-25,76.5,28.5,72.8,68.0,-36.7,-99.9,80,29,71,30.11,30.04,13,-618,0,0.00
2013-12-26,77.6,17.8,75.6,71.0,-60.5,-99.9,82,18,78,30.10,30.01,11,-766,0,0.01
2013-12-27,80.1,24.8,76.8,72.0,-46.0,-99.9,80,24,74,30.13,30.02,12,-682,0,0.00
2013-12-28,79.8,26.9,77.0,73.0,-40.9,-99.9,83,28,78,30.12,29.98,6,-655,0,0.00
2013-12-29,80.7,24.9,79.0,74.0,-45.6,-99.9,85,26,79,29.99,29.88,15,-684,0,0.00
2013-12-30,79.2,14.9,71.5,71.0,-66.9,-99.9,93,16,76,30.07,29.93,4,-805,0,0.00
2013-12-31,77.2,21.4,73.9,71.0,-52.9,-99.9,89,21,69,30.16,30.04,12,-716,0,0.00
2014-1-1,82.6,31.6,75.8,74.0,-31.0,-99.9,86,32,74,30.13,29.99,9,-599,0,0.01
2014-1-2,83.6,29.0,78.5,72.0,-39.4,-99.9,77,24,64,29.99,29.82,15,-642,0,0.00